createdAt,value
2022-11-24T00:01:05.084Z,3.20
2022-11-24T00:04:08.006Z,3.42
2022-11-24T00:07:10.513Z,2.85
2022-11-24T00:10:13.057Z,3.00
2022-11-24T00:13:15.582Z,2.75
2022-11-24T00:16:20.799Z,2.65
2022-11-24T00:19:23.399Z,3.45
2022-11-24T00:22:25.959Z,3.38
2022-11-24T00:25:28.756Z,3.10
2022-11-24T00:28:33.711Z,2.85
2022-11-24T00:31:38.628Z,2.78
2022-11-24T00:34:42.136Z,3.25
2022-11-24T00:37:44.639Z,2.80
2022-11-24T00:40:47.119Z,3.13
2022-11-24T00:43:49.953Z,3.08
2022-11-24T00:46:52.623Z,2.72
2022-11-24T00:49:55.185Z,3.05
2022-11-24T00:52:57.653Z,2.60
2022-11-24T00:56:00.155Z,2.80
2022-11-24T00:59:02.734Z,2.78
2022-11-24T01:02:05.291Z,2.75
2022-11-24T01:05:08.528Z,2.90
2022-11-24T01:08:11.856Z,3.00
2022-11-24T01:11:18.801Z,2.80
2022-11-24T01:14:23.488Z,2.78
2022-11-24T01:17:26.856Z,2.85
2022-11-24T01:20:29.610Z,2.35
2022-11-24T01:23:32.574Z,2.58
2022-11-24T01:26:35.086Z,2.77
2022-11-24T01:29:37.657Z,2.63
2022-11-24T01:32:40.200Z,3.10
2022-11-24T01:35:42.718Z,2.50
2022-11-24T01:38:45.294Z,2.47
2022-11-24T01:41:47.841Z,3.03
2022-11-24T01:45:28.546Z,2.80
2022-11-24T01:48:38.800Z,2.80
2022-11-24T01:52:14.411Z,2.58
2022-11-24T01:55:25.472Z,2.78
2022-11-24T01:58:32.247Z,2.70
2022-11-24T02:01:35.154Z,2.60
2022-11-24T02:04:38.591Z,2.80
2022-11-24T02:07:41.572Z,2.60
2022-11-24T02:10:46.340Z,2.53
2022-11-24T02:13:51.786Z,2.60
2022-11-24T02:16:54.649Z,2.50
2022-11-24T02:20:08.204Z,2.50
2022-11-24T02:23:23.038Z,2.60
2022-11-24T02:26:25.489Z,2.75
2022-11-24T02:29:28.555Z,2.80
2022-11-24T02:32:33.359Z,2.78
2022-11-24T02:35:36.097Z,2.70
2022-11-24T02:38:38.606Z,2.10
2022-11-24T02:41:59.331Z,2.85
2022-11-24T02:45:01.998Z,2.60
2022-11-24T02:48:05.474Z,2.72
2022-11-24T02:51:08.222Z,2.33
2022-11-24T02:54:10.966Z,2.28
2022-11-24T02:57:13.502Z,2.70
2022-11-24T03:00:16.643Z,2.60
2022-11-24T03:03:19.145Z,2.50
2022-11-24T03:06:21.714Z,2.30
2022-11-24T03:09:24.481Z,2.65
2022-11-24T03:12:27.065Z,2.33
2022-11-24T03:15:30.055Z,2.50
2022-11-24T03:18:32.885Z,2.30
2022-11-24T03:21:36.852Z,2.20
2022-11-24T03:24:39.613Z,2.40
2022-11-24T03:27:42.215Z,2.50
2022-11-24T03:30:45.142Z,2.53
2022-11-24T03:33:47.836Z,2.25
2022-11-24T03:36:50.441Z,2.47
2022-11-24T03:39:53.043Z,2.35
2022-11-24T03:42:55.600Z,2.72
2022-11-24T03:45:58.170Z,2.27
2022-11-24T03:49:00.742Z,2.30
2022-11-24T03:52:07.778Z,2.25
2022-11-24T03:55:10.831Z,2.30
2022-11-24T03:58:13.452Z,2.35
2022-11-24T04:01:16.069Z,2.23
2022-11-24T04:04:18.947Z,2.17
2022-11-24T04:07:21.487Z,2.10
2022-11-24T04:10:25.095Z,2.33
2022-11-24T04:13:27.772Z,2.30
2022-11-24T04:16:30.360Z,2.20
2022-11-24T04:19:33.185Z,2.30
2022-11-24T04:22:35.945Z,1.98
2022-11-24T04:25:38.918Z,2.33
2022-11-24T04:28:41.906Z,2.00
2022-11-24T04:31:44.463Z,2.10
2022-11-24T04:34:47.037Z,2.13
2022-11-24T04:37:49.584Z,2.22
2022-11-24T04:40:52.136Z,2.40
2022-11-24T04:43:54.593Z,2.00
2022-11-24T04:46:57.195Z,2.27
2022-11-24T04:50:00.404Z,2.03
2022-11-24T04:53:03.524Z,2.05
2022-11-24T04:56:07.261Z,2.20
2022-11-24T04:59:15.144Z,2.13
2022-11-24T05:02:18.284Z,2.10
2022-11-24T05:05:20.903Z,1.90
2022-11-24T05:08:23.427Z,2.10
2022-11-24T05:11:26.020Z,2.25
2022-11-24T05:14:28.520Z,2.03
2022-11-24T05:17:37.511Z,2.10
2022-11-24T05:20:40.096Z,2.00
2022-11-24T05:23:42.798Z,1.90
2022-11-24T05:26:45.281Z,2.20
2022-11-24T05:29:47.801Z,2.00
2022-11-24T05:32:50.333Z,2.43
2022-11-24T05:35:52.958Z,2.10
2022-11-24T05:38:55.506Z,2.05
2022-11-24T05:41:57.991Z,1.95
2022-11-24T05:45:00.433Z,2.10
2022-11-24T05:48:12.413Z,1.80
2022-11-24T05:51:19.851Z,1.85
2022-11-24T05:54:22.403Z,1.90
2022-11-24T05:57:25.003Z,1.90
2022-11-24T06:00:32.703Z,2.30
2022-11-24T06:03:35.220Z,1.90
2022-11-24T06:06:37.732Z,1.85
2022-11-24T06:09:41.435Z,2.05
2022-11-24T06:12:44.129Z,2.00
2022-11-24T06:15:46.612Z,2.33
2022-11-24T06:18:49.223Z,2.10
2022-11-24T06:21:51.860Z,2.22
2022-11-24T06:24:54.364Z,2.08
2022-11-24T06:27:57.581Z,2.60
2022-11-24T06:31:05.001Z,2.20
2022-11-24T06:34:10.967Z,2.10
2022-11-24T06:37:14.220Z,2.60
2022-11-24T06:40:20.029Z,2.47
2022-11-24T06:43:23.380Z,2.45
2022-11-24T06:46:25.937Z,2.45
2022-11-24T06:49:28.551Z,2.60
2022-11-24T06:52:31.906Z,2.30
2022-11-24T06:55:35.528Z,2.20
2022-11-24T06:58:44.438Z,2.90
2022-11-24T07:01:47.439Z,2.58
2022-11-24T07:04:52.414Z,2.40
2022-11-24T07:07:55.677Z,2.50
2022-11-24T07:11:04.481Z,2.33
2022-11-24T07:14:07.721Z,2.70
2022-11-24T07:17:11.159Z,2.20
2022-11-24T07:20:14.977Z,2.50
2022-11-24T07:23:17.837Z,2.45
2022-11-24T07:26:21.550Z,2.40
2022-11-24T07:29:24.181Z,2.50
2022-11-24T07:32:26.945Z,2.15
2022-11-24T07:35:30.634Z,2.30
2022-11-24T07:38:35.828Z,2.22
2022-11-24T07:41:38.552Z,2.20
2022-11-24T07:44:41.321Z,2.10
2022-11-24T07:47:43.868Z,2.70
2022-11-24T07:50:49.934Z,2.30
2022-11-24T07:53:55.434Z,2.35
2022-11-24T07:56:58.092Z,2.20
2022-11-24T08:00:00.600Z,2.80
2022-11-24T08:03:05.666Z,2.47
2022-11-24T08:06:28.584Z,2.50
2022-11-24T08:09:31.220Z,3.03
2022-11-24T08:12:33.790Z,2.72
2022-11-24T08:15:37.641Z,2.80
2022-11-24T08:18:41.276Z,2.30
2022-11-24T08:21:43.808Z,2.00
2022-11-24T08:24:48.854Z,2.50
2022-11-24T08:27:51.420Z,2.22
2022-11-24T08:30:54.053Z,2.13
2022-11-24T08:33:57.237Z,2.25
2022-11-24T08:36:59.806Z,2.40
2022-11-24T08:40:02.260Z,2.00
2022-11-24T08:43:04.791Z,2.47
2022-11-24T08:46:12.567Z,2.50
2022-11-24T08:49:15.499Z,2.30
2022-11-24T08:52:18.320Z,2.27
2022-11-24T08:55:21.526Z,2.38
2022-11-24T08:58:24.036Z,2.30
2022-11-24T09:01:27.620Z,2.30
2022-11-24T09:04:30.954Z,2.00
2022-11-24T09:07:35.102Z,2.80
2022-11-24T09:10:37.792Z,2.70
2022-11-24T09:13:44.116Z,2.30
2022-11-24T09:16:46.748Z,2.42
2022-11-24T09:19:49.735Z,2.40
2022-11-24T09:22:52.331Z,2.73
2022-11-24T09:25:54.976Z,2.60
2022-11-24T09:28:59.377Z,2.20
2022-11-24T09:32:06.513Z,2.70
2022-11-24T09:35:09.742Z,2.53
2022-11-24T09:38:13.557Z,2.20
2022-11-24T09:41:25.172Z,2.70
2022-11-24T09:45:10.387Z,2.60
2022-11-24T09:48:15.491Z,2.45
2022-11-24T09:51:20.880Z,2.50
2022-11-24T09:54:28.781Z,2.53
2022-11-24T09:57:37.696Z,2.50
2022-11-24T10:00:56.338Z,2.78
2022-11-24T10:04:05.962Z,2.92
2022-11-24T10:07:22.309Z,2.50
2022-11-24T10:10:54.543Z,2.60
2022-11-24T10:14:34.919Z,2.30
2022-11-24T10:17:49.725Z,2.60
2022-11-24T10:21:11.349Z,2.50
2022-11-24T10:24:43.057Z,2.58
2022-11-24T10:28:03.728Z,2.60
2022-11-24T10:31:33.125Z,2.95
2022-11-24T10:34:43.999Z,2.88
2022-11-24T10:38:28.805Z,3.00
2022-11-24T10:41:52.486Z,2.63
2022-11-24T10:45:19.722Z,2.83
2022-11-24T10:48:30.892Z,3.00
2022-11-24T10:52:10.245Z,2.83
2022-11-24T10:56:05.434Z,2.78
2022-11-24T10:59:32.449Z,2.95
2022-11-24T11:02:48.682Z,3.00
2022-11-24T11:06:07.448Z,2.80
2022-11-24T11:09:17.359Z,2.80
2022-11-24T11:12:43.317Z,3.05
2022-11-24T11:15:47.047Z,2.95
2022-11-24T11:18:51.418Z,2.80
2022-11-24T11:22:21.551Z,3.00
2022-11-24T11:25:32.874Z,3.05
2022-11-24T11:28:35.460Z,3.30
2022-11-24T11:31:40.892Z,3.47
2022-11-24T11:34:44.098Z,3.13
2022-11-24T11:38:00.457Z,3.42
2022-11-24T11:45:18.066Z,2.97
2022-11-24T11:48:42.823Z,2.97
2022-11-24T11:55:56.212Z,3.20
2022-11-24T11:59:56.235Z,2.92
2022-11-24T12:03:31.759Z,3.70
2022-11-24T12:06:46.366Z,3.50
2022-11-24T12:09:55.927Z,3.10
2022-11-24T12:13:36.571Z,3.63
2022-11-24T12:17:21.482Z,3.38
2022-11-24T12:20:52.009Z,3.95
2022-11-24T12:24:33.298Z,3.58
2022-11-24T12:28:12.917Z,3.80
2022-11-24T12:31:36.725Z,4.00
2022-11-24T12:35:09.161Z,3.70
2022-11-24T12:38:57.925Z,4.07
2022-11-24T12:42:58.071Z,3.80
2022-11-24T12:47:01.927Z,3.77
2022-11-24T12:50:28.914Z,3.72
2022-11-24T12:54:21.932Z,3.80
2022-11-24T12:57:50.256Z,4.20
2022-11-24T13:01:01.913Z,4.53
2022-11-24T13:04:59.936Z,4.37
2022-11-24T13:08:05.839Z,4.53
2022-11-24T13:11:30.704Z,4.57
2022-11-24T13:14:37.709Z,4.88
2022-11-24T13:18:01.418Z,4.72
2022-11-24T13:21:03.618Z,4.67
2022-11-24T13:24:19.341Z,4.43
2022-11-24T13:27:40.874Z,4.78
2022-11-24T13:30:46.688Z,4.68
2022-11-24T13:33:49.636Z,4.57
2022-11-24T13:36:53.813Z,4.77
2022-11-24T13:40:00.763Z,4.22
2022-11-24T13:43:19.369Z,4.80
2022-11-24T13:47:05.589Z,4.97
2022-11-24T13:50:21.620Z,4.50
2022-11-24T13:53:37.455Z,4.67
2022-11-24T13:56:40.059Z,4.85
2022-11-24T13:59:42.881Z,5.00
2022-11-24T14:02:46.144Z,4.70
2022-11-24T14:05:51.781Z,5.07
2022-11-24T14:09:06.707Z,4.63
2022-11-24T14:12:15.258Z,5.05
2022-11-24T14:15:25.194Z,4.93
2022-11-24T14:18:32.118Z,4.63
2022-11-24T14:21:38.239Z,4.88
2022-11-24T14:24:45.363Z,4.90
2022-11-24T14:27:48.206Z,7.18
2022-11-24T14:30:51.710Z,4.65
2022-11-24T14:34:17.100Z,5.60
2022-11-24T14:37:20.501Z,5.90
2022-11-24T14:40:39.918Z,5.80
2022-11-24T14:43:42.433Z,5.82
2022-11-24T14:46:45.230Z,5.70
2022-11-24T14:49:47.786Z,5.68
2022-11-24T14:52:57.306Z,6.13
2022-11-24T14:56:29.347Z,6.00
2022-11-24T14:59:34.840Z,6.22
2022-11-24T15:02:44.693Z,5.85
2022-11-24T15:05:59.575Z,6.30
2022-11-24T15:09:02.401Z,6.10
2022-11-24T15:12:08.701Z,6.10
2022-11-24T15:15:13.939Z,5.65
2022-11-24T15:18:35.208Z,6.30
2022-11-24T15:21:37.736Z,5.35
2022-11-24T15:24:51.130Z,5.35
2022-11-24T15:27:53.909Z,5.27
2022-11-24T15:31:00.949Z,6.20
2022-11-24T15:34:03.469Z,5.78
2022-11-24T15:37:05.978Z,6.05
2022-11-24T15:40:10.540Z,5.70
2022-11-24T15:43:27.664Z,5.97
2022-11-24T15:46:38.144Z,5.15
2022-11-24T15:49:41.067Z,5.70
2022-11-24T15:52:44.778Z,6.10
2022-11-24T15:55:47.982Z,6.00
2022-11-24T15:58:50.568Z,5.60
2022-11-24T16:01:53.223Z,5.95
2022-11-24T16:04:59.191Z,5.60
2022-11-24T16:08:01.857Z,6.43
2022-11-24T16:11:04.380Z,10.20
2022-11-24T16:14:06.992Z,10.83
2022-11-24T16:17:09.523Z,11.05
2022-11-24T16:20:12.701Z,11.30
2022-11-24T16:23:15.994Z,10.07
2022-11-24T16:26:18.619Z,9.60
2022-11-24T16:29:24.122Z,8.33
2022-11-24T16:32:26.706Z,9.27
2022-11-24T16:35:29.165Z,9.27
2022-11-24T16:38:32.107Z,10.38
2022-11-24T16:41:34.675Z,9.10
2022-11-24T16:44:37.319Z,9.03
2022-11-24T16:47:41.975Z,9.05
2022-11-24T16:50:44.600Z,9.05
2022-11-24T16:53:47.430Z,9.15
2022-11-24T16:56:49.956Z,9.35
2022-11-24T16:59:52.551Z,9.40
2022-11-24T17:02:55.265Z,9.30
2022-11-24T17:05:58.830Z,8.98
2022-11-24T17:09:02.077Z,9.65
2022-11-24T17:12:04.899Z,9.02
2022-11-24T17:15:31.746Z,9.33
2022-11-24T17:18:30.319Z,9.77
2022-11-24T17:21:33.347Z,8.70
2022-11-24T17:24:36.258Z,9.07
2022-11-24T17:27:39.040Z,9.43
2022-11-24T17:30:42.062Z,9.57
2022-11-24T17:33:44.761Z,9.15
2022-11-24T17:36:47.756Z,9.13
2022-11-24T17:40:12.856Z,8.75
2022-11-24T17:43:13.873Z,9.90
2022-11-24T17:46:16.865Z,9.53
2022-11-24T17:49:21.439Z,9.43
2022-11-24T17:52:24.980Z,10.07
2022-11-24T17:55:28.070Z,9.93
2022-11-24T17:58:31.868Z,9.77
2022-11-24T18:01:34.898Z,10.13
2022-11-24T18:04:38.258Z,10.05
2022-11-24T18:07:41.854Z,9.48
2022-11-24T18:10:44.984Z,10.30
2022-11-24T18:13:58.247Z,10.02
2022-11-24T18:17:04.957Z,10.37
2022-11-24T18:20:08.202Z,10.52
2022-11-24T18:23:11.979Z,9.70
2022-11-24T18:26:16.952Z,10.00
2022-11-24T18:29:19.883Z,9.80
2022-11-24T18:32:23.221Z,10.63
2022-11-24T18:35:26.216Z,10.13
2022-11-24T18:38:29.296Z,9.85
2022-11-24T18:41:33.100Z,10.20
2022-11-24T18:44:37.231Z,10.13
2022-11-24T18:47:40.327Z,9.97
2022-11-24T18:50:44.894Z,10.48
2022-11-24T18:53:55.619Z,9.75
2022-11-24T18:57:03.124Z,9.68
2022-11-24T19:00:08.235Z,9.80
2022-11-24T19:03:11.342Z,10.47
2022-11-24T19:06:26.338Z,10.20
2022-11-24T19:09:29.322Z,10.18
2022-11-24T19:12:32.359Z,9.93
2022-11-24T19:15:36.165Z,10.10
2022-11-24T19:18:39.615Z,9.90
2022-11-24T19:21:43.561Z,10.73
2022-11-24T19:24:47.587Z,9.90
2022-11-24T19:27:50.337Z,9.73
2022-11-24T19:30:53.645Z,10.55
2022-11-24T19:33:58.944Z,9.83
2022-11-24T19:37:01.609Z,10.50
2022-11-24T19:40:05.421Z,9.75
2022-11-24T19:43:08.013Z,10.23
2022-11-24T19:46:13.757Z,9.55
2022-11-24T19:49:17.684Z,9.47
2022-11-24T19:52:23.633Z,10.13
2022-11-24T19:55:27.770Z,10.10
2022-11-24T19:58:36.813Z,10.07
2022-11-24T20:01:40.535Z,9.88
2022-11-24T20:04:44.295Z,10.47
2022-11-24T20:07:47.351Z,10.18
2022-11-24T20:10:50.336Z,10.23
2022-11-24T20:13:53.242Z,10.25
2022-11-24T20:16:56.764Z,10.43
2022-11-24T20:19:59.623Z,8.80
2022-11-24T20:23:04.250Z,9.68
2022-11-24T20:26:11.012Z,10.38
2022-11-24T20:29:15.121Z,10.07
2022-11-24T20:32:20.762Z,9.88
2022-11-24T20:35:23.799Z,9.50
2022-11-24T20:41:47.399Z,9.57
2022-11-24T20:44:50.655Z,9.98
2022-11-24T20:47:53.717Z,9.80
2022-11-24T20:50:56.891Z,9.77
2022-11-24T20:54:03.883Z,9.88
2022-11-24T20:57:07.098Z,9.82
2022-11-24T21:00:10.419Z,9.27
2022-11-24T21:03:13.440Z,9.80
2022-11-24T21:06:16.201Z,9.77
2022-11-24T21:09:19.455Z,9.68
2022-11-24T21:12:22.592Z,9.63
2022-11-24T21:15:25.608Z,9.18
2022-11-24T21:18:28.189Z,10.00
2022-11-24T21:21:34.687Z,9.67
2022-11-24T21:24:37.669Z,9.15
2022-11-24T21:27:40.716Z,9.60
2022-11-24T21:30:43.665Z,9.15
2022-11-24T21:33:48.684Z,9.98
2022-11-24T21:36:51.188Z,9.27
2022-11-24T21:39:53.674Z,9.40
2022-11-24T21:42:58.918Z,9.63
2022-11-24T21:46:07.075Z,8.88
2022-11-24T21:49:09.755Z,10.15
2022-11-24T21:52:12.346Z,9.37
2022-11-24T21:55:14.854Z,9.82
2022-11-24T21:58:17.470Z,9.55
2022-11-24T22:01:22.582Z,9.30
2022-11-24T22:04:25.285Z,9.15
2022-11-24T22:07:32.456Z,8.80
2022-11-24T22:10:35.905Z,8.77
2022-11-24T22:13:38.999Z,8.70
2022-11-24T22:16:41.549Z,8.68
2022-11-24T22:19:44.035Z,8.80
2022-11-24T22:22:46.546Z,9.07
2022-11-24T22:25:49.070Z,9.20
2022-11-24T22:28:53.046Z,8.93
2022-11-24T22:31:55.546Z,8.40
2022-11-24T22:34:58.167Z,8.68
2022-11-24T22:38:00.650Z,8.40
2022-11-24T22:41:09.329Z,9.38
2022-11-24T22:44:11.861Z,8.80
2022-11-24T22:47:14.447Z,8.35
2022-11-24T22:50:17.269Z,8.68
2022-11-24T22:53:19.670Z,9.40
2022-11-24T22:56:22.582Z,8.57
2022-11-24T22:59:25.100Z,9.00
2022-11-24T23:02:28.357Z,8.88
2022-11-24T23:05:33.259Z,7.90
2022-11-24T23:08:36.300Z,8.10
2022-11-24T23:11:40.684Z,8.15
2022-11-24T23:14:43.128Z,8.23
2022-11-24T23:17:45.704Z,8.50
2022-11-24T23:20:48.194Z,8.70
2022-11-24T23:23:52.711Z,7.97
2022-11-24T23:26:55.272Z,7.95
2022-11-24T23:29:57.969Z,8.10
2022-11-24T23:33:00.493Z,8.40
2022-11-24T23:36:09.814Z,8.13
2022-11-24T23:39:13.591Z,7.83
2022-11-24T23:42:16.255Z,7.85
2022-11-24T23:45:18.778Z,8.20
2022-11-24T23:48:21.469Z,7.85
2022-11-24T23:51:29.535Z,7.38
2022-11-24T23:57:52.286Z,8.40
